Time;durP1;ratioP1;P1;durP2;ratioP2;P2;SDS_P1;SDS_P2;PMS_P1;PMS_P2;Temp;Humidity;BMP_temperature;BMP_pressure;BME280_temperature;BME280_humidity;BME280_pressure;Samples;Min_cycle;Max_cycle;Signal;HPM_P1;HPM_P2
2021/01/10 00:00:05;;;;;;;2.93;2.73;;;19.50;45.30;;;;;;4992684;28;20470;-70
2021/01/10 00:02:31;;;;;;;3.40;3.30;;;19.50;45.30;;;;;;4980772;28;20502;-70
2021/01/10 00:04:57;;;;;;;3.07;2.87;;;19.50;45.30;;;;;;4986567;28;20496;-70
2021/01/10 00:07:23;;;;;;;3.27;3.10;;;19.50;45.40;;;;;;4989922;28;20476;-69
2021/01/10 00:09:50;;;;;;;2.70;2.60;;;19.50;46.30;;;;;;4979794;28;20492;-69
2021/01/10 00:12:20;;;;;;;3.53;3.33;;;19.50;45.40;;;;;;4980506;28;20480;-69
2021/01/10 00:14:46;;;;;;;3.60;3.40;;;19.50;45.40;;;;;;4986012;28;20516;-69
2021/01/10 00:17:13;;;;;;;3.90;3.60;;;19.50;45.40;;;;;;4967929;28;20523;-69
2021/01/10 00:19:39;;;;;;;3.30;3.17;;;19.40;45.20;;;;;;4984335;28;20488;-69
2021/01/10 00:22:05;;;;;;;3.40;3.27;;;19.40;45.30;;;;;;4989142;28;20488;-70
2021/01/10 00:24:31;;;;;;;4.10;3.90;;;19.40;45.30;;;;;;4989403;28;20567;-68
2021/01/10 00:26:58;;;;;;;3.53;3.33;;;19.40;45.30;;;;;;4981345;28;20876;-69
2021/01/10 00:29:24;;;;;;;3.20;3.10;;;19.40;45.40;;;;;;4976207;28;20490;-69
2021/01/10 00:31:51;;;;;;;3.37;3.17;;;19.40;45.30;;;;;;4977858;28;20489;-69
2021/01/10 00:34:17;;;;;;;3.73;3.43;;;19.40;45.10;;;;;;4984465;28;20546;-69
2021/01/10 00:36:43;;;;;;;3.23;2.90;;;19.40;44.80;;;;;;4988406;28;20546;-69
2021/01/10 00:39:10;;;;;;;3.60;3.40;;;19.40;44.60;;;;;;4987723;28;20484;-69
2021/01/10 00:41:37;;;;;;;3.20;3.00;;;19.40;44.60;;;;;;4982071;28;20496;-69
2021/01/10 00:44:04;;;;;;;3.40;3.10;;;19.50;44.70;;;;;;4996799;28;20564;-69
2021/01/10 00:46:30;;;;;;;2.70;2.60;;;19.50;44.60;;;;;;4979075;28;20547;-70
2021/01/10 00:48:56;;;;;;;3.87;3.60;;;19.50;44.60;;;;;;4984518;28;20480;-70
2021/01/10 00:51:22;;;;;;;3.20;3.00;;;19.50;44.70;;;;;;4997483;28;20484;-70
2021/01/10 00:53:50;;;;;;;3.80;3.50;;;19.50;44.60;;;;;;4988594;28;20489;-70
2021/01/10 00:56:16;;;;;;;3.30;2.90;;;19.50;44.60;;;;;;4974745;28;20513;-70
2021/01/10 00:58:42;;;;;;;2.70;2.50;;;19.50;44.90;;;;;;4988755;28;20535;-70
2021/01/10 01:01:09;;;;;;;2.50;2.40;;;19.50;44.70;;;;;;4992660;28;20492;-69
2021/01/10 01:03:36;;;;;;;3.57;3.47;;;19.50;44.80;;;;;;4991739;28;20488;-70
2021/01/10 01:06:02;;;;;;;3.40;3.20;;;19.50;44.60;;;;;;4986398;28;20528;-70
2021/01/10 01:08:28;;;;;;;3.10;3.00;;;19.50;44.60;;;;;;4978361;28;20477;-71
2021/01/10 01:10:54;;;;;;;3.67;3.47;;;19.50;44.20;;;;;;4986712;28;20842;-70
2021/01/10 01:13:20;;;;;;;2.93;2.73;;;19.50;44.10;;;;;;4965573;28;20491;-70
2021/01/10 01:15:50;;;;;;;4.13;3.83;;;19.50;44.10;;;;;;4995729;28;20488;-70
2021/01/10 01:18:17;;;;;;;3.90;3.60;;;19.50;44.20;;;;;;4988637;28;20929;-70
2021/01/10 01:20:44;;;;;;;3.93;3.73;;;19.50;44.30;;;;;;4988036;28;20567;-71
2021/01/10 01:23:10;;;;;;;2.97;2.83;;;19.60;44.30;;;;;;4989265;28;20483;-69
2021/01/10 01:25:36;;;;;;;2.97;2.87;;;19.60;44.20;;;;;;4984268;28;20481;-69
2021/01/10 01:28:03;;;;;;;3.20;3.00;;;19.60;43.90;;;;;;4988782;28;20866;-70
2021/01/10 01:30:29;;;;;;;3.30;3.00;;;19.60;43.80;;;;;;4983390;28;20516;-70
2021/01/10 01:32:55;;;;;;;3.33;3.13;;;19.60;43.70;;;;;;4989840;28;21373;-69
2021/01/10 01:35:22;;;;;;;2.97;2.83;;;19.60;43.70;;;;;;4973725;28;20491;-69
2021/01/10 01:37:48;;;;;;;3.73;3.50;;;19.50;43.90;;;;;;4986323;28;20486;-70
2021/01/10 01:40:15;;;;;;;3.20;3.00;;;19.50;43.80;;;;;;4966866;28;20569;-69
2021/01/10 01:42:41;;;;;;;3.67;3.47;;;19.50;43.90;;;;;;4972377;28;20488;-69
2021/01/10 01:45:08;;;;;;;4.20;3.80;;;19.50;44.00;;;;;;4971476;28;20500;-69
2021/01/10 01:47:34;;;;;;;3.30;3.10;;;19.50;44.20;;;;;;4986869;28;20484;-70
2021/01/10 01:50:01;;;;;;;3.13;2.93;;;19.50;44.10;;;;;;4987280;28;20481;-69
2021/01/10 01:52:28;;;;;;;3.97;3.67;;;19.50;44.00;;;;;;4979955;28;21017;-70
2021/01/10 01:54:54;;;;;;;3.37;3.13;;;19.50;44.10;;;;;;4976833;28;20513;-70
2021/01/10 01:57:20;;;;;;;3.30;3.10;;;19.40;43.70;;;;;;4952624;28;20522;-69
2021/01/10 01:59:46;;;;;;;4.70;4.40;;;19.50;43.80;;;;;;4975413;28;20480;-70
2021/01/10 02:02:13;;;;;;;4.00;3.70;;;19.40;43.40;;;;;;4988021;28;20533;-70
2021/01/10 02:04:41;;;;;;;3.70;3.40;;;19.40;43.40;;;;;;4973977;28;21072;-69
2021/01/10 02:07:11;;;;;;;3.20;3.10;;;19.50;43.40;;;;;;4966137;28;20497;-70
2021/01/10 02:09:40;;;;;;;3.47;3.37;;;19.50;43.50;;;;;;4987848;28;20515;-70
2021/01/10 02:12:07;;;;;;;4.37;4.17;;;19.50;43.60;;;;;;4982687;28;20494;-69
2021/01/10 02:14:35;;;;;;;3.37;3.17;;;19.50;43.60;;;;;;5001658;28;20808;-69
2021/01/10 02:17:01;;;;;;;4.00;3.70;;;19.50;43.90;;;;;;4991881;28;20489;-70
2021/01/10 02:19:31;;;;;;;3.87;3.60;;;19.50;43.80;;;;;;4991762;28;20572;-69
2021/01/10 02:21:57;;;;;;;4.47;4.17;;;19.50;43.70;;;;;;4990987;28;20478;-69
2021/01/10 02:24:24;;;;;;;3.43;3.33;;;19.50;43.30;;;;;;4988539;28;20867;-70
2021/01/10 02:26:50;;;;;;;3.70;3.50;;;19.50;43.30;;;;;;4991799;28;20507;-70
2021/01/10 02:29:17;;;;;;;3.13;2.93;;;19.50;43.30;;;;;;4997722;28;20492;-69
2021/01/10 02:31:43;;;;;;;4.20;4.00;;;19.50;43.50;;;;;;4996891;28;20999;-69
2021/01/10 02:34:09;;;;;;;3.13;3.03;;;19.50;43.60;;;;;;4953822;28;20492;-69
2021/01/10 02:36:44;;;;;;;3.83;3.53;;;19.50;43.50;;;;;;4999144;28;20485;-69
2021/01/10 02:39:11;;;;;;;2.80;2.70;;;19.60;43.40;;;;;;4974810;28;20493;-69
2021/01/10 02:41:42;;;;;;;3.93;3.63;;;19.50;43.20;;;;;;5001728;28;20542;-69
2021/01/10 02:44:13;;;;;;;3.53;3.33;;;19.50;43.20;;;;;;4967907;28;21011;-69
2021/01/10 02:46:39;;;;;;;4.20;3.90;;;19.50;43.20;;;;;;4999562;28;21385;-70
2021/01/10 02:49:05;;;;;;;3.50;3.30;;;19.50;43.30;;;;;;4976751;28;20493;-70
2021/01/10 02:51:31;;;;;;;4.03;3.83;;;19.50;43.50;;;;;;4989247;28;21028;-70
2021/01/10 02:53:58;;;;;;;4.27;3.97;;;19.40;43.50;;;;;;4967915;28;20994;-70
2021/01/10 02:56:24;;;;;;;3.60;3.40;;;19.50;43.60;;;;;;4994745;28;21184;-70
2021/01/10 02:58:52;;;;;;;4.70;4.40;;;19.40;43.50;;;;;;4970471;28;20491;-71
2021/01/10 03:01:18;;;;;;;3.70;3.47;;;19.40;43.60;;;;;;4997956;28;21023;-71
2021/01/10 03:03:44;;;;;;;4.90;4.50;;;19.40;43.50;;;;;;4987535;28;21081;-70
2021/01/10 03:06:10;;;;;;;3.80;3.60;;;19.40;43.50;;;;;;4998275;28;20539;-69
2021/01/10 03:08:36;;;;;;;4.30;3.90;;;19.40;43.50;;;;;;4979634;28;20483;-70
2021/01/10 03:11:03;;;;;;;4.07;3.80;;;19.40;43.50;;;;;;4989649;28;20480;-70
2021/01/10 03:13:29;;;;;;;4.10;3.80;;;19.40;43.20;;;;;;4979201;28;21603;-70
2021/01/10 03:15:56;;;;;;;4.27;4.00;;;19.40;43.20;;;;;;4990933;28;21099;-70
2021/01/10 03:18:23;;;;;;;3.97;3.73;;;19.40;43.00;;;;;;4992687;28;20484;-70
2021/01/10 03:20:49;;;;;;;4.10;3.90;;;19.40;43.00;;;;;;4979602;28;20554;-70
2021/01/10 03:23:15;;;;;;;3.70;3.50;;;19.40;43.10;;;;;;4979690;28;20488;-70
2021/01/10 03:25:41;;;;;;;4.70;4.40;;;19.40;43.00;;;;;;4966475;28;21263;-70
2021/01/10 03:28:08;;;;;;;4.10;3.90;;;19.40;43.00;;;;;;4971176;28;20497;-70
2021/01/10 03:30:34;;;;;;;3.63;3.43;;;19.40;43.30;;;;;;4975222;28;20473;-70
2021/01/10 03:33:01;;;;;;;4.43;4.13;;;19.40;43.40;;;;;;4963871;28;20535;-70
2021/01/10 03:35:27;;;;;;;4.00;3.80;;;19.40;43.30;;;;;;4962873;28;21409;-70
2021/01/10 03:37:53;;;;;;;4.17;3.97;;;19.40;43.40;;;;;;4973321;28;21008;-70
2021/01/10 03:40:19;;;;;;;4.20;3.90;;;19.40;43.40;;;;;;4971121;28;20505;-70
2021/01/10 03:42:46;;;;;;;4.90;4.50;;;19.40;43.40;;;;;;4970883;28;21230;-70
2021/01/10 03:45:14;;;;;;;4.13;3.70;;;19.40;43.40;;;;;;4965330;28;20523;-69
2021/01/10 03:47:40;;;;;;;4.97;4.57;;;19.40;43.40;;;;;;4975974;28;20488;-70
2021/01/10 03:50:08;;;;;;;5.10;4.73;;;19.40;43.40;;;;;;4953545;28;20486;-70
2021/01/10 03:52:34;;;;;;;4.80;4.40;;;19.30;43.30;;;;;;4979593;28;20903;-70
2021/01/10 03:55:00;;;;;;;4.93;4.63;;;19.30;43.30;;;;;;4965591;28;20486;-70
2021/01/10 03:57:27;;;;;;;4.80;4.50;;;19.30;43.30;;;;;;4960688;28;20493;-70
2021/01/10 03:59:53;;;;;;;5.70;5.37;;;19.30;44.10;;;;;;4971668;28;20477;-70
2021/01/10 04:02:19;;;;;;;4.73;4.43;;;19.30;43.30;;;;;;4971090;28;20477;-69
2021/01/10 04:04:45;;;;;;;5.60;5.17;;;19.30;43.30;;;;;;4971051;28;20489;-70
2021/01/10 04:07:12;;;;;;;4.80;4.43;;;19.30;43.20;;;;;;4971327;28;20903;-70
2021/01/10 04:09:38;;;;;;;4.60;4.30;;;19.30;43.00;;;;;;4971831;28;20497;-71
2021/01/10 04:12:05;;;;;;;4.60;4.30;;;19.30;42.80;;;;;;4959256;28;20486;-70
2021/01/10 04:14:31;;;;;;;5.27;4.87;;;19.30;42.80;;;;;;4966461;28;20485;-70
2021/01/10 04:16:57;;;;;;;5.00;4.67;;;19.30;42.80;;;;;;4974243;28;20489;-69
2021/01/10 04:19:23;;;;;;;5.87;5.37;;;19.40;42.80;;;;;;4953975;28;20480;-70
2021/01/10 04:21:49;;;;;;;4.97;4.60;;;19.40;42.90;;;;;;4960150;28;20493;-70
2021/01/10 04:24:16;;;;;;;5.57;5.17;;;19.30;42.90;;;;;;4965407;28;20513;-70
2021/01/10 04:26:46;;;;;;;5.40;4.93;;;19.40;43.00;;;;;;4958159;28;20567;-71
2021/01/10 04:29:13;;;;;;;4.97;4.57;;;19.30;42.90;;;;;;4953664;28;20529;-69
2021/01/10 04:31:39;;;;;;;5.07;4.67;;;19.30;42.40;;;;;;4944690;28;20497;-69
2021/01/10 04:34:06;;;;;;;5.10;4.70;;;19.40;42.80;;;;;;4974953;28;20490;-70
2021/01/10 04:36:32;;;;;;;5.83;5.33;;;19.40;42.90;;;;;;4955452;28;20529;-70
2021/01/10 04:38:58;;;;;;;5.10;4.70;;;19.40;42.80;;;;;;4953027;28;20494;-70
2021/01/10 04:41:25;;;;;;;5.63;5.23;;;19.40;42.80;;;;;;4969943;28;20481;-70
2021/01/10 04:43:52;;;;;;;6.97;5.73;;;19.50;42.90;;;;;;4971275;28;20489;-69
2021/01/10 04:46:18;;;;;;;6.50;5.93;;;19.50;42.80;;;;;;4959986;28;20474;-70
2021/01/10 04:48:45;;;;;;;6.37;5.77;;;19.50;42.70;;;;;;4956883;28;20469;-70
2021/01/10 04:51:11;;;;;;;5.30;4.90;;;19.50;42.80;;;;;;4972836;28;20512;-70
2021/01/10 04:53:38;;;;;;;6.07;5.50;;;19.50;42.60;;;;;;4969500;28;20470;-70
2021/01/10 04:56:04;;;;;;;8.53;6.07;;;19.50;42.60;;;;;;4968964;28;20919;-70
2021/01/10 04:58:31;;;;;;;6.50;5.87;;;19.50;41.90;;;;;;4967185;28;20502;-71
2021/01/10 05:00:58;;;;;;;6.93;6.10;;;19.50;42.40;;;;;;4972444;28;21098;-70
2021/01/10 05:03:24;;;;;;;6.53;5.93;;;19.50;42.40;;;;;;4972154;28;20539;-70
2021/01/10 05:05:51;;;;;;;6.50;5.90;;;19.50;42.50;;;;;;4948721;28;20486;-71
2021/01/10 05:08:17;;;;;;;6.50;5.90;;;19.40;42.30;;;;;;4968444;28;21033;-69
2021/01/10 05:10:43;;;;;;;8.33;6.50;;;19.40;42.70;;;;;;4965742;28;20534;-70
2021/01/10 05:13:09;;;;;;;6.80;5.17;;;19.40;42.70;;;;;;4985412;28;20481;-70
2021/01/10 05:15:37;;;;;;;6.50;5.90;;;19.40;42.60;;;;;;4971139;28;20492;-70
2021/01/10 05:18:03;;;;;;;6.07;5.60;;;19.40;42.80;;;;;;4991056;28;20484;-70
2021/01/10 05:20:31;;;;;;;7.60;6.10;;;19.30;42.70;;;;;;4991337;28;20493;-69
2021/01/10 05:22:58;;;;;;;8.63;6.83;;;19.30;42.70;;;;;;4969961;28;21044;-70
2021/01/10 05:25:24;;;;;;;7.30;6.67;;;19.30;42.70;;;;;;4985429;28;20482;-69
2021/01/10 05:27:53;;;;;;;8.00;6.90;;;19.30;42.80;;;;;;4988397;28;21016;-70
2021/01/10 05:30:26;;;;;;;8.93;7.03;;;19.30;42.90;;;;;;4978361;28;20870;-70
2021/01/10 05:32:59;;;;;;;7.20;6.17;;;19.30;42.80;;;;;;4971790;28;20925;-69
2021/01/10 05:35:25;;;;;;;6.30;5.70;;;19.30;42.70;;;;;;4970417;28;21616;-69
2021/01/10 05:37:57;;;;;;;8.10;6.60;;;19.30;42.70;;;;;;4971207;28;20476;-70
2021/01/10 05:40:29;;;;;;;6.90;6.20;;;19.30;42.50;;;;;;4985210;28;20473;-69
2021/01/10 05:42:56;;;;;;;6.57;5.90;;;19.30;42.30;;;;;;4976729;28;20504;-69
2021/01/10 05:45:35;;;;;;;6.77;6.00;;;19.30;42.40;;;;;;4960563;28;20873;-70
2021/01/10 05:48:13;;;;;;;7.00;6.30;;;19.30;42.50;;;;;;4969822;28;20473;-69
2021/01/10 05:50:45;;;;;;;10.97;7.33;;;19.30;42.60;;;;;;4975144;28;20522;-71
2021/01/10 05:53:18;;;;;;;6.17;5.57;;;19.30;42.60;;;;;;4976493;28;21163;-70
2021/01/10 05:55:58;;;;;;;7.60;6.83;;;19.30;42.70;;;;;;4982632;28;20483;-69
2021/01/10 05:58:24;;;;;;;7.60;6.87;;;19.30;42.80;;;;;;4987061;28;20572;-69
2021/01/10 06:00:51;;;;;;;6.07;5.47;;;19.30;42.80;;;;;;4986529;28;20495;-70
2021/01/10 06:03:19;;;;;;;8.70;6.23;;;19.30;42.80;;;;;;4980554;28;20507;-70
2021/01/10 06:05:55;;;;;;;7.43;6.47;;;19.30;42.80;;;;;;4997230;28;20484;-71
2021/01/10 06:08:28;;;;;;;8.63;6.63;;;19.30;42.90;;;;;;4975865;28;20481;-70
2021/01/10 06:10:54;;;;;;;7.07;6.03;;;19.20;42.70;;;;;;4989271;28;21016;-70
2021/01/10 06:13:20;;;;;;;7.07;5.83;;;19.20;42.70;;;;;;4974123;28;20499;-70
2021/01/10 06:15:48;;;;;;;6.37;5.77;;;19.20;42.70;;;;;;4985169;28;20492;-70
2021/01/10 06:18:15;;;;;;;6.70;6.00;;;19.20;42.60;;;;;;4991693;28;20492;-70
2021/01/10 06:20:42;;;;;;;8.47;6.87;;;19.20;42.60;;;;;;4989951;28;20538;-70
2021/01/10 06:23:09;;;;;;;7.97;6.50;;;19.20;42.50;;;;;;4994517;28;21015;-70
2021/01/10 06:25:37;;;;;;;7.00;5.77;;;19.20;42.30;;;;;;4984681;28;20505;-70
2021/01/10 06:28:04;;;;;;;6.37;5.63;;;19.20;41.70;;;;;;4987417;28;20493;-70
2021/01/10 06:30:31;;;;;;;8.37;6.10;;;19.20;41.60;;;;;;4973629;28;20500;-70
2021/01/10 06:33:01;;;;;;;7.17;6.03;;;19.20;41.50;;;;;;4991571;28;21015;-70
2021/01/10 06:35:27;;;;;;;6.73;6.03;;;19.20;41.60;;;;;;4958233;28;20473;-70
2021/01/10 06:37:55;;;;;;;7.67;5.63;;;19.30;41.50;;;;;;4979885;28;20484;-70
2021/01/10 06:40:21;;;;;;;7.37;5.63;;;19.30;41.40;;;;;;4978554;28;20491;-70
2021/01/10 06:42:47;;;;;;;6.37;5.50;;;19.30;41.30;;;;;;4995822;28;20545;-71
2021/01/10 06:45:13;;;;;;;9.20;6.20;;;19.30;41.30;;;;;;4959941;28;20489;-70
2021/01/10 06:47:39;;;;;;;9.07;6.60;;;19.30;41.30;;;;;;4934205;28;20485;-70
2021/01/10 06:50:06;;;;;;;7.40;6.00;;;19.30;41.30;;;;;;4969580;28;20547;-70
2021/01/10 06:52:33;;;;;;;6.83;5.50;;;19.30;41.60;;;;;;4990038;28;21939;-69
2021/01/10 06:55:00;;;;;;;7.00;5.90;;;19.30;41.70;;;;;;4985160;28;20488;-69
2021/01/10 06:57:30;;;;;;;6.17;5.53;;;19.30;41.60;;;;;;4975598;28;21141;-71
2021/01/10 07:00:00;;;;;;;7.13;5.70;;;19.30;41.70;;;;;;4987858;28;20885;-71
2021/01/10 07:02:26;;;;;;;5.53;5.03;;;19.20;41.80;;;;;;4962914;28;20461;-69
2021/01/10 07:05:02;;;;;;;8.10;6.20;;;19.20;41.90;;;;;;4992260;28;20484;-70
2021/01/10 07:07:42;;;;;;;5.60;5.10;;;19.20;41.80;;;;;;4971322;28;20492;-70
2021/01/10 07:10:11;;;;;;;7.20;6.13;;;19.20;41.80;;;;;;4986876;28;20513;-70
2021/01/10 07:12:37;;;;;;;6.03;5.43;;;19.20;41.70;;;;;;4951033;28;20477;-70
2021/01/10 07:15:28;;;;;;;7.10;5.83;;;19.30;41.50;;;;;;4955522;28;20855;-70
2021/01/10 07:18:07;;;;;;;8.10;5.57;;;19.30;41.90;;;;;;4974935;28;20914;-70
2021/01/10 07:20:39;;;;;;;7.90;5.40;;;19.30;41.40;;;;;;4994879;28;20490;-70
2021/01/10 07:23:29;;;;;;;8.17;5.77;;;19.30;41.10;;;;;;4991701;28;21140;-70
2021/01/10 07:25:56;;;;;;;7.57;5.60;;;19.40;41.00;;;;;;4974270;28;20495;-70
2021/01/10 07:28:36;;;;;;;5.83;5.00;;;19.40;40.80;;;;;;4991257;28;20556;-70
2021/01/10 07:31:10;;;;;;;6.70;5.43;;;19.40;40.80;;;;;;4987641;28;20480;-69
2021/01/10 07:33:37;;;;;;;5.20;4.57;;;19.50;41.00;;;;;;4991143;28;20886;-71
2021/01/10 07:36:03;;;;;;;6.93;5.17;;;19.50;41.00;;;;;;4986713;28;20506;-70
2021/01/10 07:38:31;;;;;;;7.60;5.57;;;19.50;40.80;;;;;;4991604;28;20484;-70
2021/01/10 07:41:27;;;;;;;7.27;5.27;;;19.50;40.70;;;;;;4971356;28;21307;-70
2021/01/10 07:43:53;;;;;;;6.53;5.17;;;19.60;40.70;;;;;;4974380;28;20485;-71
2021/01/10 07:46:57;;;;;;;6.23;5.67;;;19.60;40.80;;;;;;4977416;28;20551;-70
2021/01/10 07:49:24;;;;;;;8.10;5.90;;;19.60;41.40;;;;;;4969503;28;20514;-70
2021/01/10 07:51:50;;;;;;;5.53;4.77;;;19.60;40.60;;;;;;4981498;28;20473;-70
2021/01/10 07:54:18;;;;;;;7.83;5.07;;;19.50;40.50;;;;;;4988422;28;20492;-70
2021/01/10 07:56:45;;;;;;;4.93;4.63;;;19.50;40.50;;;;;;4990508;28;20480;-70
2021/01/10 07:59:14;;;;;;;5.20;4.73;;;19.50;40.60;;;;;;4981938;28;20544;-70
2021/01/10 08:01:47;;;;;;;7.07;5.60;;;19.50;40.70;;;;;;4989159;28;20565;-70
2021/01/10 08:04:13;;;;;;;5.47;4.97;;;19.50;40.70;;;;;;4978973;28;20503;-70
2021/01/10 08:06:55;;;;;;;5.30;4.20;;;19.50;40.70;;;;;;4999906;28;22063;-70
2021/01/10 08:09:21;;;;;;;6.20;5.60;;;19.50;40.80;;;;;;4992581;28;20484;-70
2021/01/10 08:11:53;;;;;;;8.50;4.97;;;19.50;40.70;;;;;;4957718;28;21152;-70
2021/01/10 08:14:19;;;;;;;4.00;3.60;;;19.50;40.70;;;;;;4990578;28;20499;-70
2021/01/10 08:16:46;;;;;;;4.43;4.03;;;19.50;41.00;;;;;;4998841;28;20492;-70
2021/01/10 08:19:12;;;;;;;4.93;4.53;;;19.50;40.80;;;;;;4988346;28;20476;-69
2021/01/10 08:21:38;;;;;;;4.27;3.97;;;19.50;40.80;;;;;;4992016;28;20486;-70
2021/01/10 08:24:05;;;;;;;6.50;5.23;;;19.50;40.80;;;;;;4987986;28;20877;-70
2021/01/10 08:26:36;;;;;;;4.67;4.27;;;19.50;40.80;;;;;;4986568;28;20524;-70
2021/01/10 08:29:06;;;;;;;4.27;3.70;;;19.50;40.70;;;;;;4982681;28;20496;-70
2021/01/10 08:31:32;;;;;;;4.93;4.53;;;19.50;41.50;;;;;;4993056;28;20489;-69
2021/01/10 08:33:59;;;;;;;5.03;4.40;;;19.50;40.90;;;;;;4978085;28;20959;-70
2021/01/10 08:36:25;;;;;;;4.80;4.23;;;19.50;40.80;;;;;;4952998;28;20546;-70
2021/01/10 08:38:52;;;;;;;4.73;4.33;;;19.50;40.90;;;;;;4986459;28;20580;-70
2021/01/10 08:41:26;;;;;;;4.53;4.13;;;19.50;41.10;;;;;;4985325;28;21154;-69
2021/01/10 08:43:53;;;;;;;5.03;4.40;;;19.50;41.30;;;;;;4979973;28;20503;-70
2021/01/10 08:46:20;;;;;;;6.23;3.80;;;19.50;41.30;;;;;;4983125;28;20495;-70
2021/01/10 08:48:46;;;;;;;5.17;4.47;;;19.50;40.70;;;;;;4997635;28;20497;-69
2021/01/10 08:51:26;;;;;;;6.97;4.47;;;19.50;40.50;;;;;;4977637;28;20486;-70
2021/01/10 08:53:52;;;;;;;4.60;3.60;;;19.40;40.60;;;;;;4988763;28;20488;-70
2021/01/10 08:56:18;;;;;;;6.13;4.83;;;19.40;40.60;;;;;;4987994;28;20519;-69
2021/01/10 08:58:45;;;;;;;4.37;3.97;;;19.40;40.60;;;;;;4999063;28;20475;-69
2021/01/10 09:01:18;;;;;;;5.93;4.60;;;19.40;40.70;;;;;;4992975;28;20492;-69
2021/01/10 09:03:56;;;;;;;5.33;4.10;;;19.40;40.90;;;;;;4991445;28;21244;-70
2021/01/10 09:06:23;;;;;;;4.63;3.70;;;19.40;41.30;;;;;;4986303;28;20564;-70
2021/01/10 09:08:49;;;;;;;5.07;4.13;;;19.40;41.20;;;;;;4989696;28;20480;-70
2021/01/10 09:11:15;;;;;;;4.30;3.90;;;19.40;41.20;;;;;;4989997;28;20484;-70
2021/01/10 09:13:42;;;;;;;4.60;4.17;;;19.40;41.20;;;;;;4998458;28;20503;-68
2021/01/10 09:16:11;;;;;;;5.00;4.27;;;19.40;41.30;;;;;;4986246;28;20488;-70
2021/01/10 09:18:38;;;;;;;5.23;4.50;;;19.40;41.00;;;;;;4992840;28;20492;-69
2021/01/10 09:21:11;;;;;;;4.27;3.97;;;19.40;40.90;;;;;;4991934;28;20489;-69
2021/01/10 09:23:37;;;;;;;4.73;4.17;;;19.40;40.90;;;;;;4992829;28;20495;-69
2021/01/10 09:26:04;;;;;;;5.40;3.80;;;19.40;41.10;;;;;;4984822;28;20506;-70
2021/01/10 09:28:32;;;;;;;4.80;4.40;;;19.30;40.70;;;;;;4990780;28;21167;-69
2021/01/10 09:30:58;;;;;;;6.00;4.67;;;19.30;40.80;;;;;;4988878;28;20575;-69
2021/01/10 09:33:25;;;;;;;4.70;3.80;;;19.30;40.70;;;;;;4989034;28;20488;-69
2021/01/10 09:35:51;;;;;;;5.10;4.30;;;19.40;40.70;;;;;;4988929;28;20491;-70
2021/01/10 09:38:19;;;;;;;4.50;4.03;;;19.40;40.80;;;;;;4989464;28;20484;-70
2021/01/10 09:40:59;;;;;;;8.07;4.70;;;19.40;40.70;;;;;;4991966;28;20476;-70
2021/01/10 09:43:47;;;;;;;5.13;4.53;;;19.40;40.70;;;;;;4990841;28;20484;-71
2021/01/10 09:46:30;;;;;;;4.80;3.97;;;19.40;40.90;;;;;;4980898;28;20494;-70
2021/01/10 09:48:58;;;;;;;4.57;4.17;;;19.30;41.10;;;;;;4991990;28;20481;-70
2021/01/10 09:51:24;;;;;;;5.27;3.80;;;19.30;41.30;;;;;;4975027;28;20578;-71
2021/01/10 09:53:51;;;;;;;4.07;3.67;;;19.30;41.40;;;;;;4988069;28;20485;-71
2021/01/10 09:56:44;;;;;;;4.87;4.40;;;19.30;41.60;;;;;;4980435;28;20879;-71
2021/01/10 09:59:36;;;;;;;4.97;4.20;;;19.40;41.70;;;;;;4985553;28;20475;-71
2021/01/10 10:02:11;;;;;;;5.60;4.23;;;19.40;41.60;;;;;;4985848;28;20493;-70
2021/01/10 10:04:37;;;;;;;4.83;4.33;;;19.30;41.50;;;;;;4983724;28;21345;-71
2021/01/10 10:07:03;;;;;;;7.03;4.97;;;19.30;41.60;;;;;;4988760;28;21087;-71
2021/01/10 10:09:50;;;;;;;5.50;4.70;;;19.30;41.40;;;;;;4991240;28;20504;-72
2021/01/10 10:12:16;;;;;;;4.33;3.93;;;19.30;41.60;;;;;;4988215;28;20554;-71
2021/01/10 10:15:05;;;;;;;4.30;4.00;;;19.30;41.60;;;;;;4982327;28;21607;-70
2021/01/10 10:17:33;;;;;;;5.00;4.30;;;19.30;41.70;;;;;;4964890;28;20504;-70
2021/01/10 10:19:59;;;;;;;6.57;5.30;;;19.30;41.50;;;;;;4964550;28;20497;-71
2021/01/10 10:22:30;;;;;;;5.60;4.27;;;19.30;41.30;;;;;;4975676;28;20523;-71
2021/01/10 10:24:57;;;;;;;5.20;3.90;;;19.20;41.10;;;;;;4980076;28;20489;-70
2021/01/10 10:27:25;;;;;;;6.17;4.93;;;19.20;41.10;;;;;;4973356;28;21163;-70
2021/01/10 10:29:51;;;;;;;5.43;4.37;;;19.20;41.20;;;;;;4965043;28;20496;-71
2021/01/10 10:32:17;;;;;;;3.97;3.63;;;19.20;41.20;;;;;;4969603;28;20492;-70
2021/01/10 10:34:43;;;;;;;5.47;4.50;;;19.10;41.20;;;;;;4991701;28;20499;-71
2021/01/10 10:37:09;;;;;;;4.60;4.00;;;19.10;41.20;;;;;;4984510;28;20484;-72
2021/01/10 10:39:36;;;;;;;5.57;4.30;;;19.20;41.40;;;;;;4985849;28;20557;-70
2021/01/10 10:42:03;;;;;;;5.80;5.17;;;19.20;41.60;;;;;;4956167;28;20512;-70
2021/01/10 10:44:29;;;;;;;6.17;4.27;;;19.20;41.60;;;;;;4983880;28;21736;-70
2021/01/10 10:46:56;;;;;;;4.70;4.30;;;19.20;41.40;;;;;;4990639;28;20493;-70
2021/01/10 10:49:22;;;;;;;5.83;4.80;;;19.20;41.50;;;;;;4988119;28;20501;-71
2021/01/10 10:51:48;;;;;;;5.57;4.80;;;19.20;41.60;;;;;;4964597;28;20488;-70
2021/01/10 10:54:14;;;;;;;5.83;4.97;;;19.10;41.50;;;;;;4978491;28;20510;-69
2021/01/10 10:56:41;;;;;;;5.97;5.37;;;19.10;41.60;;;;;;4997843;28;20501;-70
2021/01/10 10:59:08;;;;;;;5.70;4.80;;;19.10;41.50;;;;;;4981872;28;20484;-70
2021/01/10 11:01:41;;;;;;;5.83;4.60;;;19.10;41.70;;;;;;4969863;28;20497;-70
2021/01/10 11:04:08;;;;;;;5.87;5.30;;;19.00;41.50;;;;;;4977764;28;20471;-70
2021/01/10 11:06:34;;;;;;;4.90;4.50;;;19.10;41.40;;;;;;4988126;28;20498;-69
2021/01/10 11:09:00;;;;;;;7.53;5.07;;;19.20;41.20;;;;;;4997511;28;20495;-70
2021/01/10 11:11:37;;;;;;;4.37;4.00;;;19.30;41.10;;;;;;4986984;28;20599;-70
2021/01/10 11:14:03;;;;;;;4.10;3.70;;;19.40;41.00;;;;;;4987074;28;21529;-70
2021/01/10 11:16:31;;;;;;;4.87;4.37;;;19.40;41.70;;;;;;4989570;28;20542;-71
2021/01/10 11:18:57;;;;;;;4.47;4.13;;;19.50;41.00;;;;;;4989010;28;20507;-70
2021/01/10 11:21:27;;;;;;;7.13;4.73;;;19.40;40.80;;;;;;4999646;28;20538;-69
2021/01/10 11:23:53;;;;;;;4.67;4.27;;;19.40;40.80;;;;;;4992548;28;20523;-70
2021/01/10 11:26:19;;;;;;;4.23;3.83;;;19.40;40.90;;;;;;4987811;28;20483;-70
2021/01/10 11:28:46;;;;;;;4.60;4.10;;;19.40;40.70;;;;;;4963482;28;20480;-70
2021/01/10 11:31:12;;;;;;;5.13;4.40;;;19.50;40.90;;;;;;4964584;28;20493;-70
2021/01/10 11:33:39;;;;;;;4.73;4.30;;;19.50;40.70;;;;;;4979503;28;20474;-70
2021/01/10 11:36:06;;;;;;;4.03;3.73;;;19.50;40.70;;;;;;4967040;28;20478;-70
2021/01/10 11:38:33;;;;;;;3.30;3.10;;;19.50;40.70;;;;;;4962963;28;20479;-70
2021/01/10 11:41:04;;;;;;;3.67;3.47;;;19.60;40.80;;;;;;4975993;28;20571;-70
2021/01/10 11:43:30;;;;;;;4.27;3.53;;;19.60;41.00;;;;;;5001323;28;21010;-71
2021/01/10 11:45:56;;;;;;;3.97;3.40;;;19.60;41.20;;;;;;4973842;28;20527;-70
2021/01/10 11:48:22;;;;;;;4.67;3.50;;;19.60;42.00;;;;;;4962494;28;20471;-70
2021/01/10 11:50:49;;;;;;;3.73;3.37;;;19.60;41.50;;;;;;4971606;28;20509;-69
2021/01/10 11:53:15;;;;;;;4.37;3.50;;;19.50;41.40;;;;;;4981834;28;20503;-69
2021/01/10 11:55:41;;;;;;;4.10;3.70;;;19.50;41.40;;;;;;4995295;28;20489;-69
2021/01/10 11:58:07;;;;;;;5.40;4.07;;;19.50;41.60;;;;;;4985572;28;20486;-69
2021/01/10 12:00:33;;;;;;;4.23;3.23;;;19.50;41.60;;;;;;4968429;28;20475;-70
2021/01/10 12:03:00;;;;;;;3.87;3.57;;;19.60;41.60;;;;;;5005487;28;21103;-70
2021/01/10 12:05:26;;;;;;;4.80;4.30;;;19.60;41.60;;;;;;4986624;28;20504;-70
2021/01/10 12:07:53;;;;;;;3.77;3.53;;;19.60;41.70;;;;;;4968255;28;21177;-70
2021/01/10 12:10:19;;;;;;;4.57;4.17;;;19.60;41.60;;;;;;4981997;28;20494;-69
2021/01/10 12:12:46;;;;;;;4.57;3.90;;;19.60;41.70;;;;;;4980124;28;20489;-70
2021/01/10 12:15:12;;;;;;;6.77;3.23;;;19.50;42.40;;;;;;4983242;28;21533;-70
2021/01/10 12:17:38;;;;;;;3.50;3.20;;;19.50;41.50;;;;;;4987663;28;20485;-70
2021/01/10 12:20:06;;;;;;;5.30;4.53;;;19.50;41.50;;;;;;4964627;28;20486;-70
2021/01/10 12:22:32;;;;;;;7.23;3.73;;;19.50;41.50;;;;;;5004848;28;20504;-69
2021/01/10 12:24:59;;;;;;;3.77;3.43;;;19.50;41.80;;;;;;4985988;28;20546;-70
2021/01/10 12:27:25;;;;;;;3.43;3.23;;;19.50;41.50;;;;;;4978824;28;20492;-70
2021/01/10 12:29:51;;;;;;;7.47;3.93;;;19.50;41.50;;;;;;4971068;28;20484;-71
2021/01/10 12:32:17;;;;;;;3.20;3.00;;;19.60;41.40;;;;;;4949318;28;20493;-70
2021/01/10 12:34:43;;;;;;;7.33;4.40;;;19.60;41.40;;;;;;4970615;28;20544;-69
2021/01/10 12:37:09;;;;;;;3.63;3.33;;;19.60;41.40;;;;;;4955276;28;20496;-70
2021/01/10 12:39:35;;;;;;;5.60;3.30;;;19.60;41.50;;;;;;4985552;28;20496;-69
2021/01/10 12:42:03;;;;;;;3.10;2.90;;;19.60;41.60;;;;;;4972740;28;20517;-70
2021/01/10 12:44:29;;;;;;;5.27;3.53;;;19.60;41.60;;;;;;4985529;28;20484;-71
2021/01/10 12:46:55;;;;;;;4.53;3.03;;;19.50;42.00;;;;;;4994036;28;20493;-71
2021/01/10 12:49:21;;;;;;;5.17;3.80;;;19.50;42.20;;;;;;4968731;28;20923;-70
2021/01/10 12:51:47;;;;;;;3.70;3.40;;;19.50;42.20;;;;;;4973425;28;20492;-70